Time;durP1;ratioP1;P1;durP2;ratioP2;P2;SDS_P1;SDS_P2;PMS_P1;PMS_P2;Temp;Humidity;BMP_temperature;BMP_pressure;BME280_temperature;BME280_humidity;BME280_pressure;Samples;Min_cycle;Max_cycle;Signal;HPM_P1;HPM_P2
2021/08/01 00:00:09;;;;;;;4.97;4.20;;;;;;;;;;4984129;28;20670;-54
2021/08/01 00:02:34;;;;;;;4.40;4.00;;;;;;;;;;4987268;28;20183;-54
2021/08/01 00:05:00;;;;;;;6.13;4.33;;;;;;;;;;4984001;28;20603;-55
2021/08/01 00:07:25;;;;;;;5.93;4.30;;;;;;;;;;4968755;28;20210;-54
2021/08/01 00:09:56;;;;;;;4.30;3.90;;;;;;;;;;4987350;28;20199;-54
2021/08/01 00:12:21;;;;;;;4.27;3.87;;;;;;;;;;4984249;28;20679;-54
2021/08/01 00:14:46;;;;;;;4.30;3.90;;;;;;;;;;4984444;28;20196;-54
2021/08/01 00:17:11;;;;;;;4.23;3.70;;;;;;;;;;4992439;28;20168;-54
2021/08/01 00:19:36;;;;;;;5.40;4.30;;;;;;;;;;4987098;28;20200;-54
2021/08/01 00:22:02;;;;;;;6.43;4.03;;;;;;;;;;4984824;28;20664;-54
2021/08/01 00:24:27;;;;;;;5.43;3.87;;;;;;;;;;4986504;28;20211;-54
2021/08/01 00:26:52;;;;;;;6.90;4.30;;;;;;;;;;4988912;28;20196;-55
2021/08/01 00:29:18;;;;;;;4.70;4.30;;;;;;;;;;4985159;28;20577;-54
2021/08/01 00:31:43;;;;;;;4.10;3.70;;;;;;;;;;4987058;28;20940;-55
2021/08/01 00:34:08;;;;;;;4.80;3.80;;;;;;;;;;4986908;28;20246;-53
2021/08/01 00:36:33;;;;;;;5.33;3.80;;;;;;;;;;4983629;28;20212;-54
2021/08/01 00:38:58;;;;;;;3.93;3.60;;;;;;;;;;4980301;28;20212;-54
2021/08/01 00:41:23;;;;;;;5.95;3.85;;;;;;;;;;4987482;28;20621;-55
2021/08/01 00:43:49;;;;;;;6.20;3.93;;;;;;;;;;4981182;28;20243;-54
2021/08/01 00:46:16;;;;;;;4.67;4.17;;;;;;;;;;4984577;28;20571;-54
2021/08/01 00:48:41;;;;;;;6.37;3.97;;;;;;;;;;4988175;28;20239;-54
2021/08/01 00:51:06;;;;;;;6.43;4.80;;;;;;;;;;4982187;28;20209;-54
2021/08/01 00:53:32;;;;;;;4.63;4.23;;;;;;;;;;4983613;28;20234;-54
2021/08/01 00:55:57;;;;;;;5.73;4.43;;;;;;;;;;4992237;28;20270;-54
2021/08/01 00:58:22;;;;;;;4.27;3.87;;;;;;;;;;4984364;28;20291;-54
2021/08/01 01:01:10;;;;;;;4.90;4.40;;;;;;;;;;4970948;28;20196;-55
2021/08/01 01:03:54;;;;;;;5.60;4.70;;;;;;;;;;4970177;28;20219;-54
2021/08/01 01:06:25;;;;;;;5.23;4.63;;;;;;;;;;4986378;28;20176;-54
2021/08/01 01:09:02;;;;;;;5.77;4.70;;;;;;;;;;4974585;28;20266;-54
2021/08/01 01:11:29;;;;;;;5.30;4.70;;;;;;;;;;4989802;28;20246;-54
2021/08/01 01:13:56;;;;;;;5.60;5.10;;;;;;;;;;4979679;28;20629;-54
2021/08/01 01:16:22;;;;;;;5.83;5.23;;;;;;;;;;4979046;28;20199;-54
2021/08/01 01:18:48;;;;;;;9.40;4.70;;;;;;;;;;4990404;28;20591;-53
2021/08/01 01:21:22;;;;;;;5.57;5.00;;;;;;;;;;4990604;28;20196;-54
2021/08/01 01:23:52;;;;;;;5.77;4.73;;;;;;;;;;4985850;28;20552;-53
2021/08/01 01:26:17;;;;;;;5.40;4.73;;;;;;;;;;4981303;28;20184;-54
2021/08/01 01:28:51;;;;;;;6.93;5.30;;;;;;;;;;4991231;28;20275;-54
2021/08/01 01:31:32;;;;;;;7.03;5.20;;;;;;;;;;4991236;28;20810;-55
2021/08/01 01:33:58;;;;;;;5.70;4.80;;;;;;;;;;4990574;28;20526;-54
2021/08/01 01:36:27;;;;;;;6.80;4.87;;;;;;;;;;4990813;28;20219;-54
2021/08/01 01:38:53;;;;;;;5.90;5.30;;;;;;;;;;4991816;28;20618;-54
2021/08/01 01:41:19;;;;;;;6.60;5.00;;;;;;;;;;4986634;28;20192;-53
2021/08/01 01:43:44;;;;;;;5.60;4.93;;;;;;;;;;4982260;28;20266;-54
2021/08/01 01:46:10;;;;;;;12.40;5.13;;;;;;;;;;4998601;28;20176;-54
2021/08/01 01:48:36;;;;;;;15.20;4.83;;;;;;;;;;4988486;28;20242;-54
2021/08/01 01:51:01;;;;;;;6.27;4.60;;;;;;;;;;4987909;28;20180;-54
2021/08/01 01:53:27;;;;;;;5.10;4.60;;;;;;;;;;4989172;28;20181;-53
2021/08/01 01:55:52;;;;;;;5.40;4.90;;;;;;;;;;4970440;28;20207;-54
2021/08/01 01:58:18;;;;;;;5.73;5.07;;;;;;;;;;4980247;28;20234;-54
2021/08/01 02:00:44;;;;;;;8.60;5.70;;;;;;;;;;4989418;28;20796;-55
2021/08/01 02:03:09;;;;;;;5.90;5.40;;;;;;;;;;4983424;28;20188;-56
2021/08/01 02:05:35;;;;;;;6.73;5.60;;;;;;;;;;4972816;28;20479;-53
2021/08/01 02:08:00;;;;;;;6.70;5.53;;;;;;;;;;4980713;28;20196;-55
2021/08/01 02:10:33;;;;;;;6.33;5.63;;;;;;;;;;4990635;28;20188;-55
2021/08/01 02:12:59;;;;;;;6.17;5.57;;;;;;;;;;4989574;28;20196;-54
2021/08/01 02:15:33;;;;;;;6.67;5.20;;;;;;;;;;4993838;28;20216;-54
2021/08/01 02:18:19;;;;;;;6.00;5.43;;;;;;;;;;4991226;28;20188;-55
2021/08/01 02:20:45;;;;;;;6.33;4.97;;;;;;;;;;4989810;28;20282;-54
2021/08/01 02:23:27;;;;;;;5.30;4.77;;;;;;;;;;4991941;28;20207;-55
2021/08/01 02:25:53;;;;;;;5.53;5.03;;;;;;;;;;4991964;28;20172;-54
2021/08/01 02:28:19;;;;;;;6.03;4.93;;;;;;;;;;4982077;28;20292;-55
2021/08/01 02:30:45;;;;;;;5.30;4.80;;;;;;;;;;4983528;28;20180;-54
2021/08/01 02:33:11;;;;;;;5.57;5.07;;;;;;;;;;4981963;28;20611;-55
2021/08/01 02:35:37;;;;;;;10.27;5.93;;;;;;;;;;4991381;28;20211;-54
2021/08/01 02:38:02;;;;;;;6.37;5.53;;;;;;;;;;4992422;28;20849;-54
2021/08/01 02:40:29;;;;;;;5.47;4.97;;;;;;;;;;4973418;28;20381;-54
2021/08/01 02:42:55;;;;;;;6.30;5.70;;;;;;;;;;4988703;28;20703;-55
2021/08/01 02:45:21;;;;;;;5.87;5.27;;;;;;;;;;4973427;28;20219;-54
2021/08/01 02:47:47;;;;;;;6.10;5.50;;;;;;;;;;4971249;28;20219;-54
2021/08/01 02:50:13;;;;;;;8.33;5.67;;;;;;;;;;4989239;28;20214;-55
2021/08/01 02:53:02;;;;;;;7.43;5.33;;;;;;;;;;4971076;28;20226;-54
2021/08/01 02:55:28;;;;;;;6.20;5.43;;;;;;;;;;4975413;28;20231;-54
2021/08/01 02:57:53;;;;;;;7.00;6.03;;;;;;;;;;4970386;28;20196;-54
2021/08/01 03:00:19;;;;;;;10.60;5.97;;;;;;;;;;4984998;28;20270;-54
2021/08/01 03:02:46;;;;;;;7.27;6.03;;;;;;;;;;4987005;28;20220;-55
2021/08/01 03:05:12;;;;;;;7.53;5.83;;;;;;;;;;4972393;28;20215;-55
2021/08/01 03:07:38;;;;;;;9.30;5.83;;;;;;;;;;4975260;28;20737;-55
2021/08/01 03:10:04;;;;;;;6.93;5.33;;;;;;;;;;4990611;28;20226;-53
2021/08/01 03:12:29;;;;;;;5.10;4.70;;;;;;;;;;4987717;28;20403;-55
2021/08/01 03:14:54;;;;;;;6.07;5.10;;;;;;;;;;4987240;28;20199;-55
2021/08/01 03:17:19;;;;;;;5.23;4.73;;;;;;;;;;4991200;28;20182;-55
2021/08/01 03:19:44;;;;;;;4.90;4.50;;;;;;;;;;4987416;28;20215;-54
2021/08/01 03:22:10;;;;;;;6.43;4.37;;;;;;;;;;4988578;28;20188;-55
2021/08/01 03:24:35;;;;;;;5.23;4.73;;;;;;;;;;4989116;28;20212;-55
2021/08/01 03:27:00;;;;;;;5.33;4.47;;;;;;;;;;4989049;28;20435;-55
2021/08/01 03:29:25;;;;;;;5.43;4.20;;;;;;;;;;4991205;28;20200;-54
2021/08/01 03:31:51;;;;;;;4.70;4.30;;;;;;;;;;4990308;28;20191;-56
2021/08/01 03:34:16;;;;;;;6.57;4.60;;;;;;;;;;4988173;28;20184;-53
2021/08/01 03:36:41;;;;;;;5.77;4.87;;;;;;;;;;4972042;28;20192;-54
2021/08/01 03:39:06;;;;;;;6.10;5.27;;;;;;;;;;4974910;28;20196;-54
2021/08/01 03:41:32;;;;;;;5.90;5.27;;;;;;;;;;4987887;28;20665;-55
2021/08/01 03:43:57;;;;;;;5.40;4.90;;;;;;;;;;4986357;28;20199;-53
2021/08/01 03:46:22;;;;;;;7.33;5.50;;;;;;;;;;4987305;28;20558;-55
2021/08/01 03:48:47;;;;;;;5.27;4.77;;;;;;;;;;4990400;28;20219;-53
2021/08/01 03:51:13;;;;;;;8.40;5.17;;;;;;;;;;4989375;28;20176;-53
2021/08/01 03:53:38;;;;;;;5.60;5.10;;;;;;;;;;4987292;28;20655;-54
2021/08/01 03:56:03;;;;;;;6.27;5.23;;;;;;;;;;4987078;28;20260;-55
2021/08/01 03:58:29;;;;;;;5.20;4.70;;;;;;;;;;4990233;28;20270;-55
2021/08/01 04:00:54;;;;;;;6.47;5.07;;;;;;;;;;4986925;28;20193;-55
2021/08/01 04:03:19;;;;;;;5.90;5.07;;;;;;;;;;4984315;28;20247;-55
2021/08/01 04:05:45;;;;;;;5.23;4.73;;;;;;;;;;4987918;28;20647;-55
2021/08/01 04:08:10;;;;;;;5.07;4.57;;;;;;;;;;4989349;28;20435;-53
2021/08/01 04:10:35;;;;;;;5.83;4.80;;;;;;;;;;4985761;28;20186;-55
2021/08/01 04:13:00;;;;;;;5.00;4.60;;;;;;;;;;4987527;28;20189;-55
2021/08/01 04:15:25;;;;;;;7.20;4.87;;;;;;;;;;4988828;28;20275;-53
2021/08/01 04:17:51;;;;;;;4.80;4.40;;;;;;;;;;4987977;28;20246;-55
2021/08/01 04:20:16;;;;;;;5.23;4.73;;;;;;;;;;4986527;28;20191;-54
2021/08/01 04:22:42;;;;;;;4.87;4.20;;;;;;;;;;4988907;28;20195;-56
2021/08/01 04:25:07;;;;;;;5.70;4.50;;;;;;;;;;4990532;28;20258;-54
2021/08/01 04:27:32;;;;;;;9.33;4.83;;;;;;;;;;4986490;28;20256;-55
2021/08/01 04:29:58;;;;;;;7.40;4.90;;;;;;;;;;4988763;28;20223;-54
2021/08/01 04:32:23;;;;;;;6.07;4.38;;;;;;;;;;4990139;28;20183;-55
2021/08/01 04:34:48;;;;;;;7.90;4.50;;;;;;;;;;4988860;28;20188;-54
2021/08/01 04:37:13;;;;;;;6.28;4.18;;;;;;;;;;4987130;28;20816;-55
2021/08/01 04:39:38;;;;;;;5.82;4.07;;;;;;;;;;4989121;28;20211;-55
2021/08/01 04:42:03;;;;;;;6.55;4.30;;;;;;;;;;4994808;28;20549;-55
2021/08/01 04:44:29;;;;;;;4.77;4.30;;;;;;;;;;4986504;28;20235;-55
2021/08/01 04:46:54;;;;;;;5.00;4.50;;;;;;;;;;4988242;28;20195;-54
2021/08/01 04:49:19;;;;;;;6.65;4.47;;;;;;;;;;4989142;28;20487;-54
2021/08/01 04:51:44;;;;;;;5.10;4.60;;;;;;;;;;4988275;28;20238;-55
2021/08/01 04:54:09;;;;;;;6.27;4.83;;;;;;;;;;4985844;28;20200;-54
2021/08/01 04:56:34;;;;;;;5.57;4.33;;;;;;;;;;4986780;28;20191;-55
2021/08/01 04:59:00;;;;;;;6.53;5.37;;;;;;;;;;4988558;28;20700;-54
2021/08/01 05:01:25;;;;;;;5.00;4.60;;;;;;;;;;4986210;28;20211;-54
2021/08/01 05:03:50;;;;;;;7.32;5.50;;;;;;;;;;4970352;28;20626;-54
2021/08/01 05:06:15;;;;;;;5.90;5.30;;;;;;;;;;4968487;28;20227;-54
2021/08/01 05:08:41;;;;;;;6.88;5.07;;;;;;;;;;4988052;28;20342;-55
2021/08/01 05:11:06;;;;;;;5.15;4.35;;;;;;;;;;4983240;28;20199;-54
2021/08/01 05:13:31;;;;;;;5.10;4.60;;;;;;;;;;4968493;28;20207;-54
2021/08/01 05:15:57;;;;;;;5.63;5.00;;;;;;;;;;4971493;28;20180;-54
2021/08/01 05:18:22;;;;;;;5.60;5.03;;;;;;;;;;4987297;28;20231;-55
2021/08/01 05:20:47;;;;;;;6.32;4.60;;;;;;;;;;4987425;28;20192;-54
2021/08/01 05:23:13;;;;;;;6.95;4.90;;;;;;;;;;4989984;28;20429;-55
2021/08/01 05:25:38;;;;;;;5.60;4.82;;;;;;;;;;4988191;28;20723;-55
2021/08/01 05:28:03;;;;;;;5.70;5.20;;;;;;;;;;4987495;28;20203;-55
2021/08/01 05:30:28;;;;;;;6.97;4.93;;;;;;;;;;4969055;28;20193;-54
2021/08/01 05:32:53;;;;;;;6.10;5.10;;;;;;;;;;4989819;28;20180;-55
2021/08/01 05:35:19;;;;;;;8.13;4.93;;;;;;;;;;4987760;28;21006;-53
2021/08/01 05:37:44;;;;;;;5.30;4.80;;;;;;;;;;4987946;28;20248;-55
2021/08/01 05:40:10;;;;;;;6.78;5.03;;;;;;;;;;4993371;28;20680;-54
2021/08/01 05:42:36;;;;;;;6.38;4.95;;;;;;;;;;4992710;28;20656;-55
2021/08/01 05:45:01;;;;;;;5.60;5.10;;;;;;;;;;4989306;28;20211;-54
2021/08/01 05:47:26;;;;;;;7.03;4.82;;;;;;;;;;4991342;28;20219;-54
2021/08/01 05:49:51;;;;;;;5.75;4.60;;;;;;;;;;4975300;28;20214;-55
2021/08/01 05:52:16;;;;;;;5.82;4.78;;;;;;;;;;4990518;28;20827;-54
2021/08/01 05:54:42;;;;;;;7.20;4.82;;;;;;;;;;4990803;28;20180;-55
2021/08/01 05:57:07;;;;;;;6.18;5.20;;;;;;;;;;4975639;28;20216;-54
2021/08/01 05:59:32;;;;;;;6.57;5.63;;;;;;;;;;4982878;28;20200;-55
2021/08/01 06:01:57;;;;;;;8.32;5.30;;;;;;;;;;4976423;28;20510;-54
2021/08/01 06:04:23;;;;;;;6.30;5.50;;;;;;;;;;4972194;28;20235;-54
2021/08/01 06:06:48;;;;;;;6.25;5.18;;;;;;;;;;4993385;28;20188;-55
2021/08/01 06:09:13;;;;;;;6.20;5.60;;;;;;;;;;4976218;28;20581;-54
2021/08/01 06:11:38;;;;;;;6.10;5.50;;;;;;;;;;4974503;28;20280;-55
2021/08/01 06:14:03;;;;;;;9.32;4.90;;;;;;;;;;4987293;28;20203;-54
2021/08/01 06:16:29;;;;;;;7.20;5.43;;;;;;;;;;4990292;28;20198;-54
2021/08/01 06:18:54;;;;;;;7.72;5.30;;;;;;;;;;4989339;28;20210;-55
2021/08/01 06:21:19;;;;;;;7.25;6.10;;;;;;;;;;4986959;28;20195;-55
2021/08/01 06:23:46;;;;;;;6.68;5.82;;;;;;;;;;4991479;28;20682;-55
2021/08/01 06:26:12;;;;;;;6.95;5.65;;;;;;;;;;4989670;28;20187;-55
2021/08/01 06:28:37;;;;;;;7.18;6.18;;;;;;;;;;4989013;28;20204;-55
2021/08/01 06:31:04;;;;;;;6.72;6.05;;;;;;;;;;4992097;28;20177;-55
2021/08/01 06:33:29;;;;;;;6.18;5.57;;;;;;;;;;4991043;28;20195;-55
2021/08/01 06:35:55;;;;;;;6.28;5.50;;;;;;;;;;4971136;28;20192;-55
2021/08/01 06:38:20;;;;;;;8.00;5.65;;;;;;;;;;4987673;28;20200;-53
2021/08/01 06:40:45;;;;;;;7.70;5.55;;;;;;;;;;4990391;28;20196;-55
2021/08/01 06:43:10;;;;;;;6.50;5.57;;;;;;;;;;4972647;28;20179;-55
2021/08/01 06:45:35;;;;;;;6.50;5.32;;;;;;;;;;4986342;28;20230;-55
2021/08/01 06:48:01;;;;;;;5.45;4.95;;;;;;;;;;4988467;28;20226;-54
2021/08/01 06:50:26;;;;;;;6.13;5.32;;;;;;;;;;4988460;28;20272;-54
2021/08/01 06:52:51;;;;;;;7.35;5.65;;;;;;;;;;4989295;28;20222;-55
2021/08/01 06:55:16;;;;;;;8.55;5.63;;;;;;;;;;4986311;28;20192;-54
2021/08/01 06:57:42;;;;;;;9.43;5.40;;;;;;;;;;4987092;28;20196;-53
2021/08/01 07:00:07;;;;;;;6.90;6.00;;;;;;;;;;4972500;28;20227;-54
2021/08/01 07:02:32;;;;;;;9.18;5.30;;;;;;;;;;4984419;28;20242;-54
2021/08/01 07:04:58;;;;;;;13.48;5.55;;;;;;;;;;4984588;28;20783;-53
2021/08/01 07:07:23;;;;;;;15.60;5.30;;;;;;;;;;4985826;28;20177;-54
2021/08/01 07:09:48;;;;;;;8.57;5.35;;;;;;;;;;4988785;28;20200;-54
2021/08/01 07:12:13;;;;;;;9.47;5.20;;;;;;;;;;4982029;28;20672;-53
2021/08/01 07:14:38;;;;;;;9.25;5.55;;;;;;;;;;4983208;28;20439;-54
2021/08/01 07:17:04;;;;;;;8.05;5.30;;;;;;;;;;4989238;28;20188;-54
2021/08/01 07:19:29;;;;;;;7.00;5.25;;;;;;;;;;4982959;28;20211;-54
2021/08/01 07:21:54;;;;;;;6.22;5.32;;;;;;;;;;4969137;28;20188;-57
2021/08/01 07:24:19;;;;;;;7.05;5.13;;;;;;;;;;4969377;28;20218;-57
2021/08/01 07:26:47;;;;;;;6.13;5.30;;;;;;;;;;4973225;28;20263;-54
2021/08/01 07:29:12;;;;;;;7.88;5.90;;;;;;;;;;4980668;28;20749;-54
2021/08/01 07:31:37;;;;;;;9.45;6.28;;;;;;;;;;4983953;28;20219;-54
2021/08/01 07:34:02;;;;;;;9.60;6.50;;;;;;;;;;4966002;28;20188;-54
2021/08/01 07:36:28;;;;;;;7.85;6.20;;;;;;;;;;4986794;28;20664;-53
2021/08/01 07:38:53;;;;;;;7.70;6.13;;;;;;;;;;4971951;28;20207;-55
2021/08/01 07:41:19;;;;;;;10.38;5.32;;;;;;;;;;4977755;28;20195;-54
2021/08/01 07:43:44;;;;;;;6.40;4.88;;;;;;;;;;4986047;28;20204;-53
2021/08/01 07:46:09;;;;;;;6.78;4.80;;;;;;;;;;4983389;28;21040;-53
2021/08/01 07:48:34;;;;;;;5.53;4.32;;;;;;;;;;4983921;28;20218;-55
2021/08/01 07:51:00;;;;;;;7.38;4.40;;;;;;;;;;4987722;28;20615;-54
2021/08/01 07:53:26;;;;;;;7.07;4.47;;;;;;;;;;4987100;28;20184;-54
2021/08/01 07:55:51;;;;;;;5.45;4.03;;;;;;;;;;4969973;28;20218;-52
2021/08/01 07:58:16;;;;;;;5.95;4.03;;;;;;;;;;4987776;28;20200;-55
2021/08/01 08:00:41;;;;;;;10.63;4.63;;;;;;;;;;4983820;28;20188;-53
2021/08/01 08:03:06;;;;;;;5.68;4.68;;;;;;;;;;4986270;28;20263;-54
2021/08/01 08:05:31;;;;;;;6.88;4.20;;;;;;;;;;4986630;28;20211;-54
2021/08/01 08:07:57;;;;;;;4.50;3.50;;;;;;;;;;4981241;28;20181;-53
2021/08/01 08:10:22;;;;;;;5.25;4.03;;;;;;;;;;4983353;28;20939;-54
2021/08/01 08:12:48;;;;;;;4.68;4.00;;;;;;;;;;4990425;28;20251;-54
2021/08/01 08:15:13;;;;;;;5.57;4.47;;;;;;;;;;4966414;28;20192;-54
2021/08/01 08:17:38;;;;;;;6.10;4.03;;;;;;;;;;4984409;28;20189;-54
2021/08/01 08:20:04;;;;;;;4.07;3.67;;;;;;;;;;4985941;28;20212;-54
2021/08/01 08:22:30;;;;;;;4.75;3.70;;;;;;;;;;4985697;28;20192;-53
2021/08/01 08:24:55;;;;;;;6.90;4.40;;;;;;;;;;4986252;28;20203;-55
2021/08/01 08:27:20;;;;;;;8.45;4.20;;;;;;;;;;4988223;28;20851;-54
2021/08/01 08:29:45;;;;;;;4.93;3.78;;;;;;;;;;4985291;28;20691;-53
2021/08/01 08:32:11;;;;;;;5.63;3.92;;;;;;;;;;4984190;28;20215;-54
2021/08/01 08:34:36;;;;;;;6.28;4.13;;;;;;;;;;4989660;28;20271;-54
2021/08/01 08:37:01;;;;;;;4.90;4.40;;;;;;;;;;4983988;28;20223;-54
2021/08/01 08:39:28;;;;;;;4.82;4.32;;;;;;;;;;4985901;28;20297;-54
2021/08/01 08:41:55;;;;;;;4.85;4.05;;;;;;;;;;4971880;28;20171;-54
2021/08/01 08:44:20;;;;;;;5.93;3.70;;;;;;;;;;4988119;28;20203;-55
2021/08/01 08:46:47;;;;;;;4.30;3.57;;;;;;;;;;4978173;28;20192;-54
2021/08/01 08:49:13;;;;;;;6.85;3.63;;;;;;;;;;4988108;28;20504;-54
2021/08/01 08:51:39;;;;;;;4.90;3.58;;;;;;;;;;4980934;28;20180;-54
2021/08/01 08:54:14;;;;;;;4.32;3.70;;;;;;;;;;4980496;28;20219;-54
2021/08/01 08:56:40;;;;;;;4.82;4.00;;;;;;;;;;4983416;28;20656;-56
2021/08/01 08:59:06;;;;;;;5.32;3.30;;;;;;;;;;4983941;28;20208;-54
2021/08/01 09:01:31;;;;;;;4.65;3.67;;;;;;;;;;4986274;28;20266;-54
2021/08/01 09:03:56;;;;;;;4.78;4.38;;;;;;;;;;4987253;28;20713;-53
2021/08/01 09:06:22;;;;;;;8.73;4.63;;;;;;;;;;4982808;28;20219;-54
2021/08/01 09:08:47;;;;;;;6.35;4.35;;;;;;;;;;4982638;28;20777;-55
2021/08/01 09:11:12;;;;;;;4.32;3.92;;;;;;;;;;4987134;28;20180;-53
2021/08/01 09:13:43;;;;;;;7.63;4.30;;;;;;;;;;4987154;28;20422;-53
2021/08/01 09:16:09;;;;;;;5.13;4.40;;;;;;;;;;4986616;28;20179;-54
2021/08/01 09:18:34;;;;;;;6.53;4.18;;;;;;;;;;4992087;28;20210;-53
2021/08/01 09:20:59;;;;;;;7.17;4.67;;;;;;;;;;4992245;28;20196;-54
2021/08/01 09:23:24;;;;;;;6.15;4.47;;;;;;;;;;4989656;28;20530;-53
2021/08/01 09:26:00;;;;;;;5.32;4.82;;;;;;;;;;4986153;28;20418;-55
2021/08/01 09:28:25;;;;;;;6.75;4.88;;;;;;;;;;4987645;28;20195;-53
2021/08/01 09:30:52;;;;;;;5.03;4.10;;;;;;;;;;4987910;28;20734;-54
2021/08/01 09:33:36;;;;;;;4.63;4.22;;;;;;;;;;4987928;28;20178;-54
2021/08/01 09:36:08;;;;;;;5.40;4.90;;;;;;;;;;4982115;28;20637;-54
2021/08/01 09:38:43;;;;;;;5.22;3.88;;;;;;;;;;4985516;28;20199;-54
2021/08/01 09:41:09;;;;;;;4.72;4.15;;;;;;;;;;4988631;28;20800;-54
2021/08/01 09:43:42;;;;;;;7.05;4.07;;;;;;;;;;4991145;28;20282;-54
2021/08/01 09:46:07;;;;;;;7.28;5.38;;;;;;;;;;4986415;28;20187;-54
2021/08/01 09:48:32;;;;;;;4.63;3.37;;;;;;;;;;4987588;28;20220;-53
2021/08/01 09:50:58;;;;;;;5.20;3.50;;;;;;;;;;4988739;28;20433;-54
2021/08/01 09:53:24;;;;;;;4.50;3.50;;;;;;;;;;4985653;28;20434;-54
2021/08/01 09:56:08;;;;;;;4.57;3.25;;;;;;;;;;4986840;28;20219;-54
2021/08/01 09:58:34;;;;;;;3.65;3.00;;;;;;;;;;5006766;28;20242;-53
2021/08/01 10:00:59;;;;;;;3.92;3.50;;;;;;;;;;4990898;28;20179;-54
2021/08/01 10:03:35;;;;;;;5.28;3.10;;;;;;;;;;4987674;28;20541;-54
2021/08/01 10:06:10;;;;;;;3.85;2.67;;;;;;;;;;4990173;28;20168;-55
2021/08/01 10:08:37;;;;;;;4.95;2.70;;;;;;;;;;4989473;28;20211;-55
2021/08/01 10:11:10;;;;;;;2.78;2.50;;;;;;;;;;4986778;28;20180;-54
2021/08/01 10:13:36;;;;;;;4.18;2.60;;;;;;;;;;4974435;28;20348;-54
2021/08/01 10:16:01;;;;;;;3.03;2.25;;;;;;;;;;4988376;28;20194;-54
2021/08/01 10:18:26;;;;;;;2.67;2.47;;;;;;;;;;4987773;28;20204;-55
2021/08/01 10:20:52;;;;;;;2.97;2.67;;;;;;;;;;4989769;28;20196;-55
2021/08/01 10:23:17;;;;;;;2.80;2.60;;;;;;;;;;4988377;28;20282;-55
2021/08/01 10:25:43;;;;;;;3.17;2.60;;;;;;;;;;4982371;28;20852;-54
2021/08/01 10:28:10;;;;;;;2.30;2.10;;;;;;;;;;4990920;28;20203;-55
2021/08/01 10:30:37;;;;;;;2.45;2.25;;;;;;;;;;4988448;28;20184;-55
2021/08/01 10:33:05;;;;;;;2.60;2.38;;;;;;;;;;4985773;28;20207;-54
2021/08/01 10:35:33;;;;;;;2.78;2.42;;;;;;;;;;4972017;28;20278;-56
2021/08/01 10:38:02;;;;;;;3.00;2.80;;;;;;;;;;4990052;28;20226;-53
2021/08/01 10:40:29;;;;;;;3.00;2.63;;;;;;;;;;4971627;28;20188;-54
2021/08/01 10:42:59;;;;;;;3.05;2.75;;;;;;;;;;4986507;28;20216;-54
2021/08/01 10:45:24;;;;;;;2.35;2.15;;;;;;;;;;4988665;28;20197;-54
2021/08/01 10:47:53;;;;;;;2.97;2.77;;;;;;;;;;4987152;28;20242;-54
2021/08/01 10:50:22;;;;;;;6.90;2.88;;;;;;;;;;4986281;28;20426;-54
2021/08/01 10:52:48;;;;;;;4.95;2.53;;;;;;;;;;4971404;28;20168;-54
2021/08/01 10:55:20;;;;;;;2.72;2.30;;;;;;;;;;4988198;28;20180;-54
2021/08/01 10:58:05;;;;;;;2.55;2.20;;;;;;;;;;4988464;28;20187;-55
2021/08/01 11:00:50;;;;;;;6.07;2.38;;;;;;;;;;4969493;28;20254;-55
2021/08/01 11:03:17;;;;;;;2.50;2.30;;;;;;;;;;4990124;28;20238;-55
2021/08/01 11:05:42;;;;;;;2.70;2.40;;;;;;;;;;4984162;28;20192;-54
2021/08/01 11:08:08;;;;;;;2.75;2.55;;;;;;;;;;4986361;28;20199;-54
2021/08/01 11:10:34;;;;;;;4.30;2.50;;;;;;;;;;4988802;28;20187;-54
2021/08/01 11:12:59;;;;;;;2.80;2.60;;;;;;;;;;4972602;28;20222;-55
2021/08/01 11:15:45;;;;;;;2.67;2.47;;;;;;;;;;4986548;28;20188;-54
2021/08/01 11:18:10;;;;;;;3.17;2.17;;;;;;;;;;4987286;28;20215;-54
2021/08/01 11:20:35;;;;;;;2.80;2.50;;;;;;;;;;4988699;28;20196;-55
2021/08/01 11:23:03;;;;;;;2.78;2.28;;;;;;;;;;4986032;28;20192;-55
2021/08/01 11:25:32;;;;;;;2.58;2.38;;;;;;;;;;4989971;28;20206;-54
2021/08/01 11:28:09;;;;;;;2.42;2.22;;;;;;;;;;4992468;28;20194;-56
2021/08/01 11:30:53;;;;;;;2.22;1.90;;;;;;;;;;4979229;28;20184;-53
2021/08/01 11:33:31;;;;;;;2.30;1.98;;;;;;;;;;4983868;28;20191;-55
2021/08/01 11:38:58;;;;;;;2.38;2.17;;;;;;;;;;4986189;28;20238;-54
2021/08/01 11:41:30;;;;;;;2.22;2.08;;;;;;;;;;4974791;28;20235;-55
2021/08/01 11:43:59;;;;;;;3.42;2.28;;;;;;;;;;4987748;28;20275;-55
2021/08/01 11:46:25;;;;;;;4.10;2.05;;;;;;;;;;4968079;28;20180;-55
2021/08/01 11:49:00;;;;;;;4.50;2.10;;;;;;;;;;4985166;28;20219;-55
2021/08/01 11:51:26;;;;;;;2.65;2.28;;;;;;;;;;4987196;28;20731;-55
2021/08/01 11:53:51;;;;;;;2.17;2.05;;;;;;;;;;4987108;28;20210;-55
2021/08/01 11:56:18;;;;;;;2.90;2.20;;;;;;;;;;4986885;28;20427;-55
2021/08/01 11:58:44;;;;;;;3.80;2.25;;;;;;;;;;4992198;28;20263;-54
2021/08/01 12:01:09;;;;;;;7.57;2.25;;;;;;;;;;4989913;28;20195;-55
2021/08/01 12:03:35;;;;;;;2.50;1.92;;;;;;;;;;4990892;28;20196;-54
2021/08/01 12:06:01;;;;;;;2.95;2.22;;;;;;;;;;4982084;28;20177;-54
2021/08/01 12:08:33;;;;;;;3.20;2.10;;;;;;;;;;4991153;28;20219;-54
2021/08/01 12:11:05;;;;;;;2.85;2.20;;;;;;;;;;4971195;28;20581;-54
2021/08/01 12:13:30;;;;;;;5.68;2.33;;;;;;;;;;4985924;28;20448;-57
2021/08/01 12:15:56;;;;;;;2.92;2.35;;;;;;;;;;4992513;28;20184;-55
2021/08/01 12:18:25;;;;;;;5.15;2.53;;;;;;;;;;4990674;28;20239;-55
2021/08/01 12:20:50;;;;;;;2.95;2.67;;;;;;;;;;4984902;28;20370;-54
2021/08/01 12:23:17;;;;;;;2.60;2.40;;;;;;;;;;4990420;28;20184;-54
2021/08/01 12:25:48;;;;;;;5.60;3.20;;;;;;;;;;4987475;28;21057;-54
2021/08/01 12:28:13;;;;;;;2.88;2.67;;;;;;;;;;4988013;28;20212;-54
2021/08/01 12:30:44;;;;;;;3.40;3.10;;;;;;;;;;4988879;28;20173;-55
2021/08/01 12:33:09;;;;;;;6.03;2.97;;;;;;;;;;4972198;28;20188;-54
2021/08/01 12:35:38;;;;;;;8.87;3.53;;;;;;;;;;4985674;28;20754;-54
2021/08/01 12:38:05;;;;;;;4.68;3.63;;;;;;;;;;4979731;28;20431;-55
2021/08/01 12:40:30;;;;;;;7.22;4.05;;;;;;;;;;4988945;28;20652;-54
2021/08/01 12:42:56;;;;;;;4.65;3.58;;;;;;;;;;4973888;28;20250;-54
2021/08/01 12:45:22;;;;;;;4.43;3.38;;;;;;;;;;4990000;28;20226;-55
2021/08/01 12:47:47;;;;;;;6.18;3.17;;;;;;;;;;4982435;28;20188;-55
2021/08/01 12:50:15;;;;;;;2.60;2.35;;;;;;;;;;4989061;28;20192;-55
2021/08/01 12:52:41;;;;;;;3.05;2.45;;;;;;;;;;4995702;28;20829;-55
2021/08/01 12:55:08;;;;;;;7.00;2.08;;;;;;;;;;4994114;28;20195;-56
2021/08/01 12:57:33;;;;;;;2.22;2.03;;;;;;;;;;4977091;28;20206;-56
2021/08/01 13:00:09;;;;;;;4.13;2.33;;;;;;;;;;4990049;28;20207;-56
2021/08/01 13:02:34;;;;;;;2.78;2.28;;;;;;;;;;4990254;28;20449;-56
2021/08/01 13:04:59;;;;;;;5.57;2.50;;;;;;;;;;4992198;28;20208;-56
2021/08/01 13:07:25;;;;;;;4.73;2.57;;;;;;;;;;4993664;28;20184;-53
2021/08/01 13:10:00;;;;;;;7.57;2.85;;;;;;;;;;4992996;28;20553;-55
2021/08/01 13:12:25;;;;;;;7.53;3.53;;;;;;;;;;4991777;28;20259;-53
2021/08/01 13:14:50;;;;;;;5.47;3.00;;;;;;;;;;4994640;28;20200;-55
2021/08/01 13:17:18;;;;;;;3.13;2.22;;;;;;;;;;4990934;28;20435;-56
2021/08/01 13:19:44;;;;;;;6.90;2.92;;;;;;;;;;4990215;28;20204;-55
2021/08/01 13:22:10;;;;;;;2.15;2.05;;;;;;;;;;4994385;28;20234;-56
2021/08/01 13:24:55;;;;;;;14.98;3.20;;;;;;;;;;4987104;28;20228;-56
2021/08/01 13:27:20;;;;;;;3.55;2.40;;;;;;;;;;4987739;28;20196;-56
2021/08/01 13:29:46;;;;;;;5.00;2.90;;;;;;;;;;4990637;28;20231;-56
2021/08/01 13:32:13;;;;;;;5.80;2.90;;;;;;;;;;4992947;28;20187;-55
2021/08/01 13:34:39;;;;;;;5.30;2.88;;;;;;;;;;4990559;28;20683;-56
2021/08/01 13:37:15;;;;;;;3.28;2.97;;;;;;;;;;4974002;28;20185;-55
2021/08/01 13:39:43;;;;;;;2.95;2.65;;;;;;;;;;4994787;28;20199;-55
2021/08/01 13:42:10;;;;;;;2.90;2.70;;;;;;;;;;4991881;28;20596;-55
2021/08/01 13:44:36;;;;;;;2.42;2.22;;;;;;;;;;4990871;28;20208;-55
2021/08/01 13:47:15;;;;;;;2.80;2.50;;;;;;;;;;4993383;28;20183;-55
2021/08/01 13:49:41;;;;;;;5.65;2.42;;;;;;;;;;4994145;28;20275;-56
2021/08/01 13:52:08;;;;;;;3.42;2.25;;;;;;;;;;4993404;28;20256;-56
2021/08/01 13:54:33;;;;;;;10.15;2.70;;;;;;;;;;4995659;28;20212;-55
2021/08/01 13:57:01;;;;;;;7.10;2.53;;;;;;;;;;4991607;28;20215;-55
2021/08/01 13:59:27;;;;;;;8.00;2.30;;;;;;;;;;4982978;28;20446;-55
2021/08/01 14:01:52;;;;;;;4.40;2.03;;;;;;;;;;4992434;28;20263;-55
2021/08/01 14:04:17;;;;;;;9.85;2.60;;;;;;;;;;4990967;28;20339;-56
2021/08/01 14:06:43;;;;;;;12.83;4.03;;;;;;;;;;4991708;28;20722;-56
2021/08/01 14:09:08;;;;;;;1.83;1.73;;;;;;;;;;4987456;28;20435;-56
2021/08/01 14:11:33;;;;;;;3.25;2.00;;;;;;;;;;4992314;28;20965;-55
2021/08/01 14:13:58;;;;;;;2.17;2.05;;;;;;;;;;4976764;28;20196;-56
2021/08/01 14:16:23;;;;;;;1.87;1.73;;;;;;;;;;4991888;28;20180;-55
2021/08/01 14:18:49;;;;;;;2.05;1.95;;;;;;;;;;4990754;28;20461;-55
2021/08/01 14:21:14;;;;;;;5.78;2.13;;;;;;;;;;4991295;28;20254;-56
2021/08/01 14:23:39;;;;;;;2.33;2.10;;;;;;;;;;4994513;28;20191;-56
2021/08/01 14:26:04;;;;;;;3.17;2.00;;;;;;;;;;4993506;28;20176;-56
2021/08/01 14:28:30;;;;;;;3.45;2.42;;;;;;;;;;4991271;28;20207;-55
2021/08/01 14:30:56;;;;;;;2.53;1.90;;;;;;;;;;4991653;28;20188;-56
2021/08/01 14:33:23;;;;;;;9.23;2.72;;;;;;;;;;4995392;28;20226;-56
2021/08/01 14:35:49;;;;;;;5.45;2.25;;;;;;;;;;4994529;28;20672;-56
2021/08/01 14:38:14;;;;;;;2.75;2.50;;;;;;;;;;4992437;28;20228;-57
2021/08/01 14:40:40;;;;;;;2.88;2.60;;;;;;;;;;4970300;28;20209;-54
2021/08/01 14:43:06;;;;;;;4.63;2.95;;;;;;;;;;4993145;28;20258;-55